Time;durP1;ratioP1;P1;durP2;ratioP2;P2;SDS_P1;SDS_P2;PMS_P1;PMS_P2;Temp;Humidity;BMP_temperature;BMP_pressure;BME280_temperature;BME280_humidity;BME280_pressure;Samples;Min_cycle;Max_cycle;Signal;HPM_P1;HPM_P2
2022/04/09 00:00:24;;;;;;;5.70;1.90;;;20.90;99.90;;;;;;5093980;28;20372;-93
2022/04/09 00:02:51;;;;;;;5.50;1.50;;;21.20;99.90;;;;;;5115085;28;20392;-93
2022/04/09 00:05:18;;;;;;;5.30;1.70;;;21.50;99.90;;;;;;5113855;28;20374;-88
2022/04/09 00:07:45;;;;;;;4.88;1.58;;;21.80;99.90;;;;;;5114686;28;20389;-89
2022/04/09 00:10:13;;;;;;;5.50;1.80;;;21.70;99.90;;;;;;5105620;28;20394;-94
2022/04/09 00:12:45;;;;;;;6.13;1.52;;;21.80;99.90;;;;;;5108595;28;20408;-89
2022/04/09 00:15:12;;;;;;;5.72;1.55;;;21.80;99.90;;;;;;5111745;28;20846;-90
2022/04/09 00:17:44;;;;;;;4.30;1.40;;;22.00;99.90;;;;;;5096319;28;20396;-93
2022/04/09 00:20:13;;;;;;;4.88;1.50;;;22.30;99.90;;;;;;5094041;28;20372;-93
2022/04/09 00:22:40;;;;;;;5.78;1.70;;;22.50;99.90;;;;;;5074626;28;20460;-93
2022/04/09 00:25:09;;;;;;;7.47;1.65;;;22.20;99.90;;;;;;5080567;28;20387;-90
2022/04/09 00:27:37;;;;;;;4.20;1.33;;;21.90;99.90;;;;;;5098218;28;20811;-91
2022/04/09 00:30:06;;;;;;;4.93;1.60;;;21.80;99.90;;;;;;5075584;28;20428;-91
2022/04/09 00:32:33;;;;;;;5.30;1.38;;;21.80;99.90;;;;;;5107571;28;20851;-92
2022/04/09 00:35:00;;;;;;;4.75;1.48;;;22.00;99.90;;;;;;5056116;28;20398;-90
2022/04/09 00:37:27;;;;;;;5.13;1.70;;;22.30;99.90;;;;;;5080629;28;20385;-90
2022/04/09 00:39:54;;;;;;;6.50;1.80;;;22.50;99.90;;;;;;5100198;28;20373;-93
2022/04/09 00:42:22;;;;;;;5.82;2.00;;;22.60;99.90;;;;;;5067204;28;20373;-90
2022/04/09 00:44:50;;;;;;;5.57;1.88;;;22.70;99.90;;;;;;5075138;28;20745;-90
2022/04/09 00:47:17;;;;;;;4.82;1.80;;;22.70;99.90;;;;;;5109726;28;20378;-92
2022/04/09 00:49:45;;;;;;;4.75;1.50;;;22.60;99.90;;;;;;5114100;28;20382;-92
2022/04/09 00:52:14;;;;;;;6.43;1.60;;;22.60;99.90;;;;;;5113935;28;20382;-92
2022/04/09 00:54:44;;;;;;;5.45;1.50;;;22.50;99.90;;;;;;5082787;28;20379;-93
2022/04/09 00:57:14;;;;;;;5.50;1.60;;;22.40;99.90;;;;;;5093445;28;20398;-92
2022/04/09 00:59:46;;;;;;;5.43;1.40;;;22.20;99.90;;;;;;5094250;28;20875;-91
2022/04/09 01:02:13;;;;;;;6.70;1.33;;;22.10;99.90;;;;;;5076596;28;20384;-94
2022/04/09 01:04:43;;;;;;;5.43;1.48;;;21.90;99.90;;;;;;5095617;28;20919;-88
2022/04/09 01:07:10;;;;;;;4.43;1.50;;;21.70;99.90;;;;;;5091771;28;20384;-90
2022/04/09 01:09:37;;;;;;;6.45;1.67;;;21.40;99.90;;;;;;5092791;28;20380;-91
2022/04/09 01:12:05;;;;;;;5.60;1.60;;;21.30;99.90;;;;;;5091093;28;20387;-91
2022/04/09 01:14:34;;;;;;;6.30;1.90;;;21.20;99.90;;;;;;5058298;28;20382;-88
2022/04/09 01:17:02;;;;;;;7.63;2.60;;;21.00;99.90;;;;;;5077227;28;20396;-89
2022/04/09 01:19:29;;;;;;;5.95;1.45;;;21.00;99.90;;;;;;5081946;28;20383;-92
2022/04/09 01:22:03;;;;;;;3.40;1.25;;;20.90;99.90;;;;;;5089331;28;21169;-91
2022/04/09 01:24:30;;;;;;;12.13;3.85;;;20.90;99.90;;;;;;5060918;28;20396;-83
2022/04/09 01:26:58;;;;;;;4.40;1.67;;;21.10;99.90;;;;;;5085735;28;20424;-83
2022/04/09 01:29:25;;;;;;;6.00;1.20;;;21.80;99.90;;;;;;5070189;22;20412;-86
2022/04/09 01:31:55;;;;;;;3.50;1.20;;;22.40;99.90;;;;;;5032702;28;20438;-86
2022/04/09 01:34:22;;;;;;;3.13;1.30;;;23.00;99.90;;;;;;5050096;28;20813;-86
2022/04/09 01:36:49;;;;;;;3.95;1.08;;;23.60;99.90;;;;;;5050393;28;20871;-84
2022/04/09 01:39:18;;;;;;;2.45;0.90;;;23.70;99.90;;;;;;5051326;28;20392;-88
2022/04/09 01:41:45;;;;;;;4.05;1.10;;;23.60;99.90;;;;;;5051926;28;20390;-84
2022/04/09 01:44:12;;;;;;;2.43;0.90;;;23.60;99.90;;;;;;5050554;28;20392;-86
2022/04/09 01:46:44;;;;;;;1.98;0.80;;;23.70;99.90;;;;;;5050746;28;20441;-91
2022/04/09 01:49:13;;;;;;;2.90;0.90;;;24.40;99.90;;;;;;5050850;28;20376;-88
2022/04/09 01:51:39;;;;;;;2.45;1.00;;;24.30;99.90;;;;;;5050957;28;20404;-94
2022/04/09 01:54:06;;;;;;;3.25;1.00;;;23.90;99.90;;;;;;5051076;28;20434;-91
2022/04/09 01:56:33;;;;;;;4.00;1.00;;;23.60;99.90;;;;;;5051943;28;20399;-90
2022/04/09 01:59:00;;;;;;;4.57;1.10;;;23.40;99.90;;;;;;5058907;28;20372;-84
2022/04/09 02:01:28;;;;;;;3.65;1.10;;;23.00;99.90;;;;;;5041497;28;20393;-88
2022/04/09 02:03:58;;;;;;;2.70;1.10;;;22.80;99.90;;;;;;5031280;28;20386;-88
2022/04/09 02:06:25;;;;;;;3.65;1.13;;;22.50;99.90;;;;;;5037071;28;20391;-87
2022/04/09 02:08:52;;;;;;;3.10;1.05;;;22.70;99.90;;;;;;5050264;28;20458;-87
2022/04/09 02:11:19;;;;;;;3.55;1.17;;;22.90;99.90;;;;;;5032310;28;20430;-86
2022/04/09 02:13:46;;;;;;;3.40;1.15;;;22.80;99.90;;;;;;5050026;28;20736;-86
2022/04/09 02:16:14;;;;;;;5.32;1.38;;;22.90;99.90;;;;;;5049787;28;20372;-86
2022/04/09 02:18:42;;;;;;;8.05;2.30;;;23.10;99.90;;;;;;5066677;22;20826;-83
2022/04/09 02:21:10;;;;;;;7.32;2.90;;;23.40;99.90;;;;;;5069082;28;20378;-86
2022/04/09 02:23:37;;;;;;;7.82;3.50;;;23.80;99.90;;;;;;5053507;28;20492;-85
2022/04/09 02:26:04;;;;;;;5.93;2.50;;;24.30;99.90;;;;;;5073920;28;20373;-85
2022/04/09 02:28:32;;;;;;;5.63;2.20;;;24.60;99.90;;;;;;5073966;28;20505;-83
2022/04/09 02:30:59;;;;;;;5.40;1.70;;;25.00;99.90;;;;;;5073645;28;20441;-84
2022/04/09 02:33:26;;;;;;;3.10;1.10;;;25.20;99.90;;;;;;5055708;28;20373;-85
2022/04/09 02:35:53;;;;;;;3.80;1.20;;;25.10;99.90;;;;;;5073687;28;20627;-85
2022/04/09 02:38:20;;;;;;;3.55;1.10;;;24.70;99.90;;;;;;5073590;28;20370;-83
2022/04/09 02:40:47;;;;;;;5.50;1.30;;;24.20;99.90;;;;;;5076211;28;20461;-84
2022/04/09 02:43:14;;;;;;;4.38;1.30;;;24.00;99.90;;;;;;5075606;28;20858;-85
2022/04/09 02:45:41;;;;;;;3.38;1.10;;;24.20;99.90;;;;;;5062017;22;20431;-86
2022/04/09 02:48:10;;;;;;;3.28;1.00;;;24.30;99.90;;;;;;5044465;28;20376;-86
2022/04/09 02:50:37;;;;;;;3.92;1.13;;;24.50;99.90;;;;;;5053310;28;20814;-86
2022/04/09 02:53:03;;;;;;;3.10;1.20;;;25.10;99.90;;;;;;5053444;28;20372;-86
2022/04/09 02:55:30;;;;;;;3.67;1.30;;;25.30;99.90;;;;;;5053438;28;20467;-86
2022/04/09 02:57:57;;;;;;;3.25;1.13;;;25.40;99.90;;;;;;5053198;28;20782;-86
2022/04/09 03:00:24;;;;;;;4.38;1.10;;;25.30;99.90;;;;;;5054017;28;20413;-86
2022/04/09 03:02:51;;;;;;;5.68;1.58;;;25.10;99.90;;;;;;5041489;28;20389;-90
2022/04/09 03:05:19;;;;;;;4.40;1.20;;;24.70;99.90;;;;;;5023964;28;20450;-85
2022/04/09 03:07:46;;;;;;;4.13;1.40;;;24.10;99.90;;;;;;5012614;28;20767;-84
2022/04/09 03:10:12;;;;;;;4.07;1.40;;;23.60;99.90;;;;;;5023489;28;20458;-81
2022/04/09 03:12:47;;;;;;;5.82;1.90;;;23.30;99.90;;;;;;5033128;28;20385;-82
2022/04/09 03:15:15;;;;;;;13.23;2.50;;;23.20;99.90;;;;;;5031629;28;20868;-86
2022/04/09 03:17:42;;;;;;;8.63;2.25;;;22.80;99.90;;;;;;5030760;28;20398;-81
2022/04/09 03:20:10;;;;;;;6.50;2.08;;;22.20;99.90;;;;;;5041802;28;20372;-83
2022/04/09 03:22:37;;;;;;;7.68;1.70;;;21.60;99.90;;;;;;5037849;28;20417;-83
2022/04/09 03:25:04;;;;;;;7.95;1.85;;;21.00;99.90;;;;;;5032467;28;20389;-81
2022/04/09 03:27:31;;;;;;;6.80;1.70;;;20.50;99.90;;;;;;5032605;28;20869;-80
2022/04/09 03:29:58;;;;;;;7.35;1.80;;;20.50;99.90;;;;;;5030997;28;20435;-85
2022/04/09 03:32:25;;;;;;;5.07;1.60;;;20.60;99.90;;;;;;5031574;28;20389;-81
2022/04/09 03:34:53;;;;;;;6.75;1.90;;;20.60;99.90;;;;;;5031957;28;20374;-84
2022/04/09 03:37:20;;;;;;;6.45;1.70;;;20.40;99.90;;;;;;5032572;28;20781;-81
2022/04/09 03:39:47;;;;;;;5.20;1.42;;;20.40;99.90;;;;;;5032745;28;20381;-83
2022/04/09 03:42:14;;;;;;;4.20;1.30;;;20.60;99.90;;;;;;5032587;28;20447;-86
2022/04/09 03:44:41;;;;;;;4.82;1.30;;;20.80;99.90;;;;;;5032561;28;20381;-82
2022/04/09 03:47:07;;;;;;;3.75;1.20;;;21.00;99.90;;;;;;5031987;28;20893;-89
2022/04/09 03:49:34;;;;;;;4.07;1.02;;;21.10;99.90;;;;;;5024703;28;20402;-85
2022/04/09 03:52:01;;;;;;;3.45;0.90;;;21.10;99.90;;;;;;5012877;28;20403;-84
2022/04/09 03:54:30;;;;;;;3.10;0.90;;;21.20;99.90;;;;;;5011602;28;20460;-87
2022/04/09 03:56:57;;;;;;;3.50;1.05;;;21.10;99.90;;;;;;5012417;28;20371;-86
2022/04/09 03:59:24;;;;;;;4.32;1.00;;;20.90;99.90;;;;;;5012535;28;20414;-85
2022/04/09 04:01:52;;;;;;;3.58;1.10;;;20.80;99.90;;;;;;5012982;28;20387;-83
2022/04/09 04:04:19;;;;;;;4.68;1.00;;;20.60;99.90;;;;;;5024778;28;20871;-87
2022/04/09 04:06:48;;;;;;;7.53;1.58;;;20.60;99.90;;;;;;5012680;28;20458;-84
2022/04/09 04:09:16;;;;;;;2.88;0.90;;;20.90;99.90;;;;;;5014694;28;20494;-87
2022/04/09 04:11:46;;;;;;;3.55;1.00;;;21.10;99.90;;;;;;5032127;28;20420;-88
2022/04/09 04:14:13;;;;;;;3.42;1.10;;;21.10;99.90;;;;;;5029314;28;20387;-87
2022/04/09 04:16:40;;;;;;;4.28;1.10;;;21.00;99.90;;;;;;5012428;28;20452;-84
2022/04/09 04:19:09;;;;;;;3.30;1.20;;;20.90;99.90;;;;;;5013260;28;20383;-86
2022/04/09 04:21:38;;;;;;;3.70;1.20;;;21.10;99.90;;;;;;5013160;28;20732;-87
2022/04/09 04:24:05;;;;;;;3.90;1.40;;;21.30;99.90;;;;;;5031296;28;20408;-86
2022/04/09 04:26:32;;;;;;;2.70;1.20;;;21.30;99.90;;;;;;5031519;28;20452;-84
2022/04/09 04:28:59;;;;;;;3.00;1.00;;;21.30;99.90;;;;;;5032277;28;20385;-84
2022/04/09 04:31:26;;;;;;;3.80;1.20;;;21.20;99.90;;;;;;5031619;28;20405;-81
2022/04/09 04:33:53;;;;;;;4.07;1.13;;;21.00;99.90;;;;;;5031604;28;20925;-83
2022/04/09 04:36:20;;;;;;;4.03;1.23;;;21.10;99.90;;;;;;5029957;28;20389;-85
2022/04/09 04:38:48;;;;;;;2.60;1.27;;;20.90;99.90;;;;;;5032141;28;20377;-87
2022/04/09 04:41:15;;;;;;;3.78;1.30;;;20.70;99.90;;;;;;5013453;28;20462;-84
2022/04/09 04:43:44;;;;;;;4.90;1.60;;;20.60;99.90;;;;;;5011998;28;20526;-90
2022/04/09 04:46:11;;;;;;;2.72;1.30;;;20.40;99.90;;;;;;5014094;28;20486;-87
2022/04/09 04:48:38;;;;;;;5.43;1.30;;;20.40;99.90;;;;;;5011168;28;20434;-86
2022/04/09 04:51:05;;;;;;;5.03;1.23;;;20.40;99.90;;;;;;5011861;28;20443;-87
2022/04/09 04:53:32;;;;;;;3.75;1.40;;;20.50;99.90;;;;;;5014111;28;21210;-89
2022/04/09 04:56:01;;;;;;;5.37;2.30;;;20.60;99.90;;;;;;5014429;28;20395;-86
2022/04/09 04:58:28;;;;;;;4.18;1.80;;;20.50;99.90;;;;;;5011997;28;20375;-89
2022/04/09 05:00:55;;;;;;;4.78;2.08;;;20.60;99.90;;;;;;5026514;28;20389;-88
2022/04/09 05:03:22;;;;;;;4.28;1.50;;;20.60;99.90;;;;;;5033146;28;20382;-84
2022/04/09 05:05:49;;;;;;;5.68;1.70;;;20.50;99.90;;;;;;5031572;28;20417;-86
2022/04/09 05:08:16;;;;;;;7.63;1.60;;;20.40;99.90;;;;;;5030764;28;20464;-88
2022/04/09 05:10:43;;;;;;;5.95;1.35;;;20.50;99.90;;;;;;5031024;28;20877;-87
2022/04/09 05:13:10;;;;;;;4.88;1.90;;;20.50;99.90;;;;;;5018537;28;20398;-84
2022/04/09 05:15:37;;;;;;;4.35;1.48;;;20.50;99.90;;;;;;5014467;28;20387;-85
2022/04/09 05:18:04;;;;;;;5.18;1.48;;;20.60;99.90;;;;;;5022070;28;20443;-85
2022/04/09 05:20:31;;;;;;;3.53;1.52;;;20.70;99.90;;;;;;5014724;28;20444;-85
2022/04/09 05:22:58;;;;;;;4.55;1.45;;;20.80;99.90;;;;;;5011338;28;20430;-86
2022/04/09 05:25:26;;;;;;;3.58;1.30;;;21.20;99.90;;;;;;5010532;28;20375;-86
2022/04/09 05:27:53;;;;;;;4.30;1.35;;;21.80;99.90;;;;;;5014100;28;20412;-87
2022/04/09 05:30:20;;;;;;;5.30;1.42;;;22.50;99.90;;;;;;5030623;28;20405;-84
2022/04/09 05:32:47;;;;;;;4.90;1.40;;;23.10;99.90;;;;;;5024725;28;20898;-81
2022/04/09 05:35:16;;;;;;;6.32;1.42;;;23.40;99.90;;;;;;5011911;28;20399;-86
2022/04/09 05:37:46;;;;;;;5.18;1.30;;;23.40;99.90;;;;;;4994126;28;20403;-89
2022/04/09 05:40:14;;;;;;;3.83;1.38;;;24.40;99.90;;;;;;5011219;28;20499;-82
2022/04/09 05:42:41;;;;;;;5.07;1.60;;;25.50;99.90;;;;;;5011735;28;20383;-82
2022/04/09 05:45:09;;;;;;;5.60;1.30;;;26.20;99.90;;;;;;5024867;28;20437;-86
2022/04/09 05:47:44;;;;;;;4.78;1.40;;;26.40;99.90;;;;;;5018677;28;20822;-83
2022/04/09 05:50:11;;;;;;;4.45;1.10;;;26.20;99.90;;;;;;5019344;28;20456;-87
2022/04/09 05:52:38;;;;;;;5.50;1.50;;;26.00;99.90;;;;;;5020519;28;20872;-85
2022/04/09 05:55:06;;;;;;;3.75;1.35;;;26.60;99.90;;;;;;5011091;28;20385;-83
2022/04/09 05:57:34;;;;;;;5.80;1.27;;;27.40;99.90;;;;;;5021720;28;20419;-86
2022/04/09 06:00:02;;;;;;;5.40;1.52;;;26.90;99.90;;;;;;5019753;28;20415;-84
2022/04/09 06:02:28;;;;;;;4.97;1.48;;;26.30;99.90;;;;;;5025699;28;20753;-86
2022/04/09 06:04:56;;;;;;;7.20;1.45;;;25.60;99.90;;;;;;5034400;28;20369;-83
2022/04/09 06:07:24;;;;;;;4.50;1.40;;;25.00;99.90;;;;;;5033876;28;20443;-81
2022/04/09 06:09:52;;;;;;;8.57;1.90;;;24.40;99.90;;;;;;5034089;28;20377;-87
2022/04/09 06:12:19;;;;;;;6.80;1.57;;;23.90;99.90;;;;;;5016761;28;20394;-85
2022/04/09 06:14:46;;;;;;;6.63;1.50;;;23.50;99.90;;;;;;5014591;28;20367;-88
2022/04/09 06:17:13;;;;;;;8.23;1.70;;;23.30;99.90;;;;;;5031701;28;20412;-84
2022/04/09 06:19:39;;;;;;;9.27;2.03;;;23.20;99.90;;;;;;5032794;28;20386;-84
2022/04/09 06:22:06;;;;;;;6.38;1.75;;;23.10;99.90;;;;;;5033835;28;20390;-84
2022/04/09 06:24:33;;;;;;;7.45;1.88;;;22.90;99.90;;;;;;5023723;28;20429;-84
2022/04/09 06:27:00;;;;;;;8.00;1.98;;;22.80;99.90;;;;;;5014934;28;20399;-85
2022/04/09 06:29:27;;;;;;;7.40;1.80;;;22.60;99.90;;;;;;5014440;28;20375;-83
2022/04/09 06:31:54;;;;;;;7.93;2.38;;;22.40;99.90;;;;;;5015891;28;20533;-85
2022/04/09 06:34:21;;;;;;;8.75;2.60;;;22.10;99.90;;;;;;5015598;28;20784;-91
2022/04/09 06:36:48;;;;;;;13.32;2.70;;;21.40;99.90;;;;;;5030928;28;20904;-88
2022/04/09 06:39:18;;;;;;;11.10;3.30;;;20.70;99.90;;;;;;5035472;28;20465;-91
2022/04/09 06:41:48;;;;;;;9.05;2.65;;;20.20;99.90;;;;;;5034555;28;20448;-86
2022/04/09 06:44:16;;;;;;;15.65;3.00;;;19.90;99.90;;;;;;5034343;28;20412;-87
2022/04/09 06:46:45;;;;;;;10.90;2.83;;;19.80;99.90;;;;;;5032506;28;20405;-86
2022/04/09 06:49:13;;;;;;;9.60;2.38;;;19.60;99.90;;;;;;5033538;28;20440;-82
2022/04/09 06:51:41;;;;;;;11.75;3.00;;;19.80;99.90;;;;;;5031884;28;20413;-82
2022/04/09 06:54:08;;;;;;;14.35;2.85;;;19.40;99.90;;;;;;5015381;28;20464;-83
2022/04/09 06:56:36;;;;;;;14.63;2.97;;;19.40;99.90;;;;;;5013688;28;20407;-82
2022/04/09 06:59:05;;;;;;;12.82;2.83;;;19.40;99.90;;;;;;5014137;28;21088;-83
2022/04/09 07:01:32;;;;;;;10.52;2.70;;;19.50;99.90;;;;;;5013908;28;20405;-85
2022/04/09 07:04:00;;;;;;;12.27;2.60;;;19.50;99.90;;;;;;5020539;28;20477;-84
2022/04/09 07:06:28;;;;;;;10.13;2.38;;;19.60;99.90;;;;;;5028501;28;20424;-85
2022/04/09 07:08:54;;;;;;;11.38;2.55;;;19.60;99.90;;;;;;5033916;28;20382;-85
2022/04/09 07:11:22;;;;;;;12.98;2.65;;;19.60;99.90;;;;;;5032038;28;20406;-85
2022/04/09 07:13:48;;;;;;;12.35;2.88;;;19.50;99.90;;;;;;5033167;28;20842;-84
2022/04/09 07:16:15;;;;;;;14.18;3.65;;;19.50;99.90;;;;;;5018973;28;20430;-84
2022/04/09 07:18:42;;;;;;;11.87;3.40;;;19.60;99.90;;;;;;5014368;28;20466;-85
2022/04/09 07:21:09;;;;;;;11.73;3.00;;;19.60;99.90;;;;;;5031786;28;20449;-84
2022/04/09 07:23:36;;;;;;;12.15;2.97;;;19.60;99.90;;;;;;5019834;28;20510;-89
2022/04/09 07:26:03;;;;;;;11.52;3.10;;;19.60;99.90;;;;;;5012863;28;20446;-84
2022/04/09 07:28:30;;;;;;;15.63;3.47;;;19.60;99.90;;;;;;5021827;28;20745;-83
2022/04/09 07:30:57;;;;;;;11.23;3.33;;;19.60;99.90;;;;;;5016954;28;20760;-85
2022/04/09 07:33:24;;;;;;;13.13;3.42;;;19.60;99.90;;;;;;5014164;28;20387;-86
2022/04/09 07:35:53;;;;;;;12.88;3.42;;;19.60;99.90;;;;;;5013968;28;20393;-84
2022/04/09 07:38:20;;;;;;;11.50;2.78;;;19.50;99.90;;;;;;5014257;28;20389;-87
2022/04/09 07:40:48;;;;;;;12.48;2.80;;;19.50;99.90;;;;;;5030713;28;20951;-83
2022/04/09 07:43:15;;;;;;;10.02;2.72;;;19.50;99.90;;;;;;5028548;28;20873;-84
2022/04/09 07:45:42;;;;;;;11.17;2.90;;;19.40;99.90;;;;;;5021471;28;20411;-82
2022/04/09 07:48:11;;;;;;;12.20;3.10;;;19.10;99.90;;;;;;5021925;28;20386;-84
2022/04/09 07:50:38;;;;;;;11.43;2.78;;;19.10;99.90;;;;;;5023702;28;20397;-82
2022/04/09 07:53:07;;;;;;;10.97;2.87;;;19.00;99.90;;;;;;5031651;28;20389;-86
2022/04/09 07:55:35;;;;;;;12.48;3.15;;;19.00;99.90;;;;;;5023685;28;20802;-88
2022/04/09 07:58:02;;;;;;;12.55;4.00;;;18.90;99.90;;;;;;5025200;28;20398;-87
2022/04/09 08:00:29;;;;;;;12.63;4.68;;;18.80;99.90;;;;;;5018705;28;20428;-86
2022/04/09 08:02:56;;;;;;;11.55;4.28;;;18.90;99.90;;;;;;5020043;28;20432;-88
2022/04/09 08:05:23;;;;;;;13.45;3.97;;;18.90;99.90;;;;;;5031742;28;20377;-87
2022/04/09 08:07:50;;;;;;;10.35;3.28;;;19.00;99.90;;;;;;5020463;28;20909;-82
2022/04/09 08:10:18;;;;;;;10.65;3.25;;;19.00;99.90;;;;;;5025484;28;20413;-87
2022/04/09 08:12:48;;;;;;;9.35;3.50;;;19.00;99.90;;;;;;5018963;28;20401;-91
2022/04/09 08:15:18;;;;;;;12.10;2.80;;;19.10;99.90;;;;;;5023035;28;20383;-83
2022/04/09 08:17:45;;;;;;;14.10;3.17;;;19.10;99.90;;;;;;5022678;28;20390;-92
2022/04/09 08:20:15;;;;;;;10.63;2.83;;;19.00;99.90;;;;;;5018629;28;20855;-91
2022/04/09 08:22:42;;;;;;;10.50;2.80;;;19.10;99.90;;;;;;5026370;28;20488;-87
2022/04/09 08:25:09;;;;;;;13.90;3.22;;;19.10;99.90;;;;;;5032183;28;21209;-86
2022/04/09 08:27:38;;;;;;;14.33;2.90;;;19.00;99.90;;;;;;5019518;28;20381;-82
2022/04/09 08:30:06;;;;;;;12.73;4.15;;;19.00;99.90;;;;;;5024834;28;20890;-86
2022/04/09 08:32:34;;;;;;;8.93;3.10;;;19.00;99.90;;;;;;5022071;28;20384;-83
2022/04/09 08:35:01;;;;;;;15.95;4.28;;;19.10;99.90;;;;;;5033396;28;20735;-87
2022/04/09 08:37:28;;;;;;;14.30;3.60;;;19.10;99.90;;;;;;5050358;28;20375;-87
2022/04/09 08:39:55;;;;;;;15.15;3.70;;;19.00;99.90;;;;;;5017405;28;20889;-86
2022/04/09 08:42:23;;;;;;;11.73;3.20;;;18.90;99.90;;;;;;5021946;28;20448;-87
2022/04/09 08:44:50;;;;;;;10.98;3.05;;;18.90;99.90;;;;;;5019714;28;20460;-87
2022/04/09 08:47:18;;;;;;;14.70;3.10;;;18.90;99.90;;;;;;5011132;28;20759;-85
2022/04/09 08:49:47;;;;;;;12.10;3.50;;;18.80;99.90;;;;;;5011879;28;20376;-86
2022/04/09 08:52:15;;;;;;;11.07;2.88;;;18.90;99.90;;;;;;5011906;28;20411;-85
2022/04/09 08:54:43;;;;;;;14.43;3.05;;;18.80;99.90;;;;;;5015053;28;20444;-85
2022/04/09 08:57:11;;;;;;;11.57;3.45;;;18.90;99.90;;;;;;5011695;28;20444;-86
2022/04/09 08:59:38;;;;;;;11.02;3.20;;;18.90;99.90;;;;;;5030528;28;20401;-85
2022/04/09 09:02:05;;;;;;;11.15;3.30;;;18.90;99.90;;;;;;5032915;28;20377;-88
2022/04/09 09:04:33;;;;;;;11.88;3.05;;;18.80;99.90;;;;;;5031964;28;20409;-84
2022/04/09 09:07:18;;;;;;;13.68;2.97;;;18.80;99.90;;;;;;5030572;28;20750;-84
2022/04/09 09:09:45;;;;;;;11.30;3.00;;;18.70;99.90;;;;;;5031108;28;20419;-86
2022/04/09 09:12:14;;;;;;;11.35;2.80;;;18.70;99.90;;;;;;5029417;28;20437;-84
2022/04/09 09:14:46;;;;;;;9.88;3.08;;;18.60;99.90;;;;;;5031091;28;20750;-85
2022/04/09 09:17:13;;;;;;;12.52;3.10;;;18.60;99.90;;;;;;5029077;28;20386;-87
2022/04/09 09:19:48;;;;;;;15.45;3.40;;;18.60;99.90;;;;;;5030865;28;20401;-86
2022/04/09 09:22:20;;;;;;;12.30;3.73;;;18.60;99.90;;;;;;5014793;28;20441;-83
2022/04/09 09:25:08;;;;;;;13.68;3.80;;;18.60;99.90;;;;;;5011191;28;20379;-86
2022/04/09 09:27:36;;;;;;;34.28;4.63;;;18.60;99.90;;;;;;5030541;28;20404;-83
2022/04/09 09:30:04;;;;;;;11.00;3.10;;;18.60;99.90;;;;;;5025931;28;20419;-84
2022/04/09 09:32:31;;;;;;;8.47;2.87;;;18.60;99.90;;;;;;5010204;28;20472;-86
2022/04/09 09:35:02;;;;;;;9.67;3.20;;;18.60;99.90;;;;;;5011143;28;20867;-86
2022/04/09 09:37:31;;;;;;;11.43;3.10;;;18.70;99.90;;;;;;5004626;28;20393;-85
2022/04/09 09:40:01;;;;;;;25.73;4.13;;;18.70;99.90;;;;;;5033835;28;20432;-81
2022/04/09 09:42:28;;;;;;;17.05;3.55;;;18.70;99.90;;;;;;5034303;28;20391;-88
2022/04/09 09:44:55;;;;;;;13.55;3.40;;;18.70;99.90;;;;;;5022719;28;20391;-88
2022/04/09 09:47:22;;;;;;;13.18;3.58;;;18.60;99.90;;;;;;5010703;28;20425;-87
2022/04/09 09:49:55;;;;;;;13.95;3.30;;;18.70;99.90;;;;;;5010782;28;20423;-84
2022/04/09 09:52:35;;;;;;;13.75;3.63;;;18.70;99.90;;;;;;5011778;28;20397;-86
2022/04/09 09:55:10;;;;;;;14.25;4.10;;;18.60;99.90;;;;;;5013212;28;20391;-87
2022/04/09 09:57:42;;;;;;;12.15;3.65;;;18.60;99.90;;;;;;5028508;28;20393;-86
2022/04/09 10:00:12;;;;;;;13.00;3.90;;;18.50;99.90;;;;;;5028716;28;20385;-85
2022/04/09 10:02:40;;;;;;;13.55;4.07;;;18.50;99.90;;;;;;5030564;28;20390;-87
2022/04/09 10:05:07;;;;;;;14.13;5.10;;;18.50;99.90;;;;;;5018245;28;20390;-89
2022/04/09 10:07:36;;;;;;;12.77;4.28;;;18.50;99.90;;;;;;5010852;28;20391;-88
2022/04/09 10:10:05;;;;;;;14.25;6.07;;;18.50;99.90;;;;;;5014867;28;20404;-87
2022/04/09 10:12:40;;;;;;;16.67;6.40;;;18.40;99.90;;;;;;5023667;28;20401;-86
2022/04/09 10:15:09;;;;;;;16.05;5.10;;;18.40;99.90;;;;;;4993248;28;20371;-87
2022/04/09 10:17:37;;;;;;;16.27;5.15;;;18.30;99.90;;;;;;5013140;28;20883;-88
2022/04/09 10:20:05;;;;;;;13.15;4.97;;;18.30;99.90;;;;;;5030304;28;20738;-87
2022/04/09 10:22:45;;;;;;;15.85;4.70;;;18.20;99.90;;;;;;5030059;28;20508;-88
2022/04/09 10:25:15;;;;;;;37.83;5.28;;;18.10;99.90;;;;;;5015334;28;20909;-87
2022/04/09 10:27:45;;;;;;;17.52;4.95;;;18.10;99.90;;;;;;5000739;28;20896;-88
2022/04/09 10:30:19;;;;;;;18.05;5.35;;;18.00;99.90;;;;;;5029480;28;20396;-87
2022/04/09 10:32:53;;;;;;;11.75;4.70;;;18.10;99.90;;;;;;5021437;28;20539;-86
2022/04/09 10:35:27;;;;;;;16.90;5.40;;;18.00;99.90;;;;;;4993144;28;20368;-88
2022/04/09 10:38:16;;;;;;;40.37;6.50;;;17.90;99.90;;;;;;5010532;28;20387;-88
2022/04/09 10:40:55;;;;;;;13.48;4.80;;;17.90;99.90;;;;;;5003635;28;20512;-86
2022/04/09 10:43:25;;;;;;;18.30;4.90;;;17.90;99.90;;;;;;5027998;28;20436;-88
2022/04/09 10:46:07;;;;;;;12.88;3.83;;;17.90;99.90;;;;;;5023924;28;20459;-86
2022/04/09 10:48:42;;;;;;;16.75;5.07;;;18.00;99.90;;;;;;4994491;28;20397;-87
2022/04/09 10:51:18;;;;;;;13.40;4.43;;;18.00;99.90;;;;;;4995099;28;20405;-85
2022/04/09 10:53:53;;;;;;;21.27;4.68;;;18.00;99.90;;;;;;4994971;28;20393;-85
2022/04/09 10:56:24;;;;;;;51.72;5.95;;;17.90;99.90;;;;;;5010517;28;20383;-87
2022/04/09 10:59:18;;;;;;;99.80;11.00;;;17.90;99.90;;;;;;4994205;28;20388;-83
2022/04/09 11:01:54;;;;;;;18.90;6.88;;;17.90;99.90;;;;;;4975679;28;20391;-84
2022/04/09 11:04:28;;;;;;;43.53;11.38;;;17.80;99.90;;;;;;4979522;28;20395;-85
2022/04/09 11:07:22;;;;;;;20.73;8.73;;;17.70;99.90;;;;;;4982098;28;20394;-86
2022/04/09 11:09:52;;;;;;;18.10;7.22;;;17.70;99.90;;;;;;4988635;28;20384;-84
2022/04/09 11:12:26;;;;;;;23.50;6.57;;;17.60;99.90;;;;;;4980424;28;20412;-86
2022/04/09 11:15:01;;;;;;;14.27;5.80;;;17.60;99.90;;;;;;4981528;28;20735;-88
2022/04/09 11:17:32;;;;;;;20.02;6.85;;;17.60;99.90;;;;;;4986513;28;20480;-86
2022/04/09 11:20:05;;;;;;;18.92;7.88;;;17.50;99.90;;;;;;4990012;28;20471;-85
2022/04/09 11:22:34;;;;;;;24.70;10.90;;;17.50;99.90;;;;;;4992646;28;20464;-86
2022/04/09 11:25:06;;;;;;;22.50;9.23;;;17.40;99.90;;;;;;4976737;28;20429;-85
2022/04/09 11:27:33;;;;;;;18.25;8.50;;;17.40;99.90;;;;;;4974238;28;20481;-86
2022/04/09 11:30:04;;;;;;;17.40;7.40;;;17.40;99.90;;;;;;4999200;28;20428;-85
2022/04/09 11:32:35;;;;;;;16.73;7.43;;;17.40;99.90;;;;;;4978588;28;20394;-85
2022/04/09 11:35:11;;;;;;;16.95;6.60;;;17.40;99.90;;;;;;4986953;28;20771;-81
2022/04/09 11:37:47;;;;;;;15.07;7.28;;;17.40;99.90;;;;;;4979553;28;20437;-87
2022/04/09 11:40:17;;;;;;;13.52;6.70;;;17.30;99.90;;;;;;4974970;28;20890;-90
2022/04/09 11:42:51;;;;;;;21.10;9.23;;;17.30;99.90;;;;;;4978342;28;20440;-82
2022/04/09 11:45:18;;;;;;;18.37;8.30;;;17.30;99.90;;;;;;4976090;28;20386;-87
2022/04/09 11:47:46;;;;;;;20.65;8.95;;;17.30;99.90;;;;;;4991517;28;20528;-86
2022/04/09 11:50:14;;;;;;;23.05;10.27;;;17.30;99.90;;;;;;4977104;28;20384;-83
2022/04/09 11:52:42;;;;;;;17.70;8.57;;;17.20;99.90;;;;;;4978902;28;20395;-87
2022/04/09 11:55:16;;;;;;;16.55;8.13;;;17.20;99.90;;;;;;4987831;28;20393;-85
2022/04/09 11:57:54;;;;;;;21.05;8.90;;;17.20;99.90;;;;;;4975803;28;20475;-87
2022/04/09 12:00:30;;;;;;;18.58;8.18;;;17.20;99.90;;;;;;4980269;28;20394;-87
2022/04/09 12:03:06;;;;;;;17.58;8.80;;;17.20;99.90;;;;;;4983101;28;20743;-86
2022/04/09 12:05:47;;;;;;;21.30;8.55;;;17.20;99.90;;;;;;4974349;28;20398;-86
2022/04/09 12:08:19;;;;;;;17.05;8.60;;;17.20;99.90;;;;;;4983662;28;20405;-83
2022/04/09 12:10:57;;;;;;;22.33;9.65;;;18.00;99.90;;;;;;4984672;28;20405;-85
2022/04/09 12:13:31;;;;;;;22.00;9.65;;;17.20;99.90;;;;;;4978397;28;20478;-86
2022/04/09 12:16:18;;;;;;;20.27;8.30;;;17.20;99.90;;;;;;4975726;28;20879;-85
2022/04/09 12:18:46;;;;;;;20.67;9.33;;;17.30;99.90;;;;;;4988096;28;20401;-86
2022/04/09 12:21:26;;;;;;;27.10;8.88;;;17.30;99.90;;;;;;4990106;28;20392;-87
2022/04/09 12:24:09;;;;;;;24.15;9.18;;;17.40;99.90;;;;;;4981718;28;20451;-84
2022/04/09 12:26:44;;;;;;;20.08;8.07;;;17.50;99.90;;;;;;4986296;28;20388;-86
2022/04/09 12:29:24;;;;;;;18.70;7.80;;;17.50;99.90;;;;;;4982856;28;20482;-84
2022/04/09 12:32:12;;;;;;;22.33;9.43;;;17.50;99.90;;;;;;4975086;28;20573;-81
2022/04/09 12:34:52;;;;;;;25.23;9.15;;;17.50;99.90;;;;;;4990785;28;20381;-83
2022/04/09 12:37:19;;;;;;;24.83;8.55;;;17.60;99.90;;;;;;5000090;28;20905;-84
2022/04/09 12:39:47;;;;;;;27.23;8.98;;;17.60;99.90;;;;;;4972857;28;20382;-84
2022/04/09 12:42:15;;;;;;;24.33;8.50;;;17.70;99.90;;;;;;4972726;28;20489;-81
2022/04/09 12:44:45;;;;;;;26.88;10.05;;;17.70;99.90;;;;;;4972939;28;20391;-84
2022/04/09 12:47:21;;;;;;;23.90;9.85;;;17.60;99.90;;;;;;5017508;28;20758;-83
2022/04/09 12:49:51;;;;;;;35.30;11.20;;;17.60;99.90;;;;;;5031058;28;20377;-82
2022/04/09 12:52:18;;;;;;;28.60;10.35;;;17.60;99.90;;;;;;5023987;28;20411;-86